Time;durP1;ratioP1;P1;durP2;ratioP2;P2;SDS_P1;SDS_P2;PMS_P1;PMS_P2;Temp;Humidity;BMP_temperature;BMP_pressure;BME280_temperature;BME280_humidity;BME280_pressure;Samples;Min_cycle;Max_cycle;Signal;HPM_P1;HPM_P2
2022/04/30 04:22:36;;;;;;;41.97;21.67;;;;;;;10.84;100.00;100863.38;5109068;27;20117;-74
2022/04/30 04:27:53;;;;;;;43.17;24.38;;;;;;;10.80;100.00;100859.34;5070683;28;20131;-74
2022/04/30 04:30:28;;;;;;;49.30;24.75;;;;;;;10.80;100.00;100859.34;5088800;28;20473;-74
2022/04/30 04:32:55;;;;;;;41.65;22.50;;;;;;;10.84;100.00;100858.03;5082906;22;20380;-75
2022/04/30 04:35:21;;;;;;;40.65;22.77;;;;;;;10.77;100.00;100857.00;4966722;28;20165;-76
2022/04/30 04:37:46;;;;;;;39.88;22.23;;;;;;;10.80;100.00;100862.84;4966592;28;20137;-76
2022/04/30 04:40:14;;;;;;;40.78;22.10;;;;;;;10.85;100.00;100867.69;4966474;28;20065;-75
2022/04/30 04:42:41;;;;;;;44.10;23.33;;;;;;;10.87;100.00;100863.03;4969060;28;20125;-75
2022/04/30 04:45:08;;;;;;;42.53;22.17;;;;;;;10.91;100.00;100867.06;4968116;28;20035;-75
2022/04/30 04:47:34;;;;;;;40.17;22.15;;;;;;;10.77;100.00;100870.34;4952243;28;20073;-75
2022/04/30 04:50:03;;;;;;;46.03;24.85;;;;;;;10.80;100.00;100868.19;4968256;28;20469;-75
2022/04/30 04:52:29;;;;;;;43.10;23.58;;;;;;;10.75;100.00;100869.66;4985355;28;20037;-75
2022/04/30 04:54:54;;;;;;;42.97;23.88;;;;;;;10.64;100.00;100875.28;4968065;28;20038;-75
2022/04/30 04:57:20;;;;;;;43.72;23.92;;;;;;;10.64;100.00;100873.44;4985568;28;20045;-75
2022/04/30 04:59:45;;;;;;;42.05;23.83;;;;;;;10.75;100.00;100877.63;4968076;28;20046;-75
2022/04/30 05:02:11;;;;;;;50.38;23.58;;;;;;;10.75;100.00;100869.66;4985323;28;20068;-75
2022/04/30 05:04:37;;;;;;;43.03;23.98;;;;;;;10.74;100.00;100875.97;4985634;28;20104;-76
2022/04/30 05:07:03;;;;;;;40.67;23.38;;;;;;;10.66;100.00;100871.44;4968366;28;20130;-74
2022/04/30 05:09:31;;;;;;;45.08;24.33;;;;;;;10.64;100.00;100878.75;4968394;28;20108;-74
2022/04/30 05:11:57;;;;;;;44.33;24.33;;;;;;;10.69;100.00;100876.44;4967812;28;20045;-74
2022/04/30 05:14:23;;;;;;;41.45;24.58;;;;;;;10.56;100.00;100884.03;4985517;28;20722;-74
2022/04/30 05:16:48;;;;;;;43.08;24.30;;;;;;;10.62;100.00;100890.56;4985613;28;20122;-75
2022/04/30 05:19:14;;;;;;;46.83;22.50;;;;;;;10.64;100.00;100885.94;4985749;28;20081;-75
2022/04/30 05:21:39;;;;;;;43.83;24.63;;;;;;;10.63;100.00;100894.88;4968110;28;20042;-74
2022/04/30 05:24:05;;;;;;;43.53;23.80;;;;;;;10.60;100.00;100891.56;4985298;28;20041;-74
2022/04/30 05:26:32;;;;;;;45.20;24.45;;;;;;;10.53;100.00;100884.34;4985444;28;20501;-75
2022/04/30 05:28:58;;;;;;;46.88;25.42;;;;;;;10.55;100.00;100883.19;4968460;28;20506;-74
2022/04/30 05:31:24;;;;;;;50.28;26.63;;;;;;;10.53;100.00;100893.19;4985231;28;20043;-74
2022/04/30 05:33:50;;;;;;;44.60;23.73;;;;;;;10.63;100.00;100889.56;4955417;28;20038;-74
2022/04/30 05:36:15;;;;;;;51.30;25.88;;;;;;;10.59;100.00;100887.22;4972441;28;20039;-75
2022/04/30 05:38:41;;;;;;;50.97;26.95;;;;;;;10.61;100.00;100895.06;4972342;28;20045;-75
2022/04/30 05:41:06;;;;;;;48.72;26.45;;;;;;;10.66;100.00;100897.25;4972278;28;20042;-75
2022/04/30 05:43:32;;;;;;;51.67;27.30;;;;;;;10.69;100.00;100896.91;4972002;28;20035;-75
2022/04/30 05:45:57;;;;;;;44.58;24.23;;;;;;;10.75;100.00;100888.28;4972502;28;20039;-75
2022/04/30 05:48:23;;;;;;;43.53;23.85;;;;;;;10.72;100.00;100893.97;4972089;28;20130;-75
2022/04/30 05:50:51;;;;;;;38.72;20.48;;;;;;;10.72;100.00;100896.63;4955085;28;20046;-75
2022/04/30 05:53:16;;;;;;;;;;;;;;;10.61;100.00;100897.72;4972244;28;20038;-75
2022/04/30 05:55:42;;;;;;;43.97;21.45;;;;;;;10.72;100.00;100900.13;4972003;28;19959;-69
2022/04/30 05:58:07;;;;;;;32.95;19.17;;;;;;;10.78;100.00;100909.31;4972165;28;20496;-69
2022/04/30 06:00:33;;;;;;;39.85;21.65;;;;;;;10.82;100.00;100910.66;4972241;28;20038;-69
2022/04/30 06:02:59;;;;;;;38.03;22.30;;;;;;;10.86;100.00;100904.03;4971765;28;20090;-69
2022/04/30 06:05:24;;;;;;;33.50;20.30;;;;;;;10.91;100.00;100909.72;4972130;28;20349;-68
2022/04/30 06:07:51;;;;;;;35.92;20.77;;;;;;;10.86;100.00;100914.69;4972120;28;20064;-69
2022/04/30 06:10:16;;;;;;;33.42;18.95;;;;;;;10.96;100.00;100912.75;4971957;28;20043;-69
2022/04/30 06:12:42;;;;;;;31.20;19.00;;;;;;;11.00;100.00;100910.56;4971437;28;20369;-69
2022/04/30 06:15:08;;;;;;;30.27;18.83;;;;;;;11.07;100.00;100916.94;4971758;28;20038;-68
2022/04/30 06:17:34;;;;;;;35.05;20.05;;;;;;;11.07;100.00;100909.78;4971842;28;20064;-66
2022/04/30 06:19:59;;;;;;;30.45;18.42;;;;;;;11.07;100.00;100915.09;4954637;28;20035;-66
2022/04/30 06:22:25;;;;;;;34.63;19.88;;;;;;;11.03;100.00;100918.28;4971417;28;20026;-66
2022/04/30 06:24:51;;;;;;;31.92;18.90;;;;;;;11.04;100.00;100915.44;4971857;28;20490;-67
2022/04/30 06:27:17;;;;;;;34.20;19.42;;;;;;;11.14;100.00;100918.78;4957884;28;20509;-68
2022/04/30 06:29:42;;;;;;;32.72;20.15;;;;;;;11.07;100.00;100917.78;4972317;28;20043;-68
2022/04/30 06:32:08;;;;;;;35.92;20.23;;;;;;;11.09;100.00;100922.97;4971267;28;20530;-67
2022/04/30 06:34:34;;;;;;;35.08;19.80;;;;;;;10.92;100.00;100911.38;4971901;28;20050;-67
2022/04/30 06:37:00;;;;;;;35.90;21.00;;;;;;;10.99;100.00;100917.75;4972586;28;20474;-67
2022/04/30 06:39:25;;;;;;;38.03;21.77;;;;;;;10.96;100.00;100918.06;4971963;28;20039;-67
2022/04/30 06:41:51;;;;;;;36.58;20.52;;;;;;;10.97;100.00;100922.41;4955021;28;20402;-67
2022/04/30 06:44:17;;;;;;;30.80;19.80;;;;;;;10.94;100.00;100925.38;4971926;28;20035;-67
2022/04/30 06:46:43;;;;;;;32.08;19.77;;;;;;;10.86;100.00;100925.34;4972743;28;20237;-67
2022/04/30 06:49:08;;;;;;;33.45;19.52;;;;;;;10.67;100.00;100938.88;4956387;28;20039;-67
2022/04/30 06:51:34;;;;;;;33.50;20.10;;;;;;;10.75;100.00;100934.44;4972711;28;20111;-67
2022/04/30 06:59:28;;;;;;;39.38;20.67;;;;;;;10.76;100.00;100937.97;4972317;28;20122;-67
2022/04/30 07:02:00;;;;;;;32.30;19.48;;;;;;;10.71;100.00;100933.09;4972359;28;20118;-67
2022/04/30 07:04:27;;;;;;;33.75;18.55;;;;;;;10.87;100.00;100948.31;4973135;28;20045;-67
2022/04/30 07:06:52;;;;;;;30.13;18.95;;;;;;;10.85;100.00;100942.34;4995432;28;20469;-66
2022/04/30 07:09:18;;;;;;;32.50;19.45;;;;;;;10.88;100.00;100940.16;5068547;28;20119;-67
2022/04/30 07:11:45;;;;;;;29.13;18.88;;;;;;;10.84;100.00;100954.00;5073541;28;20044;-69
2022/04/30 07:14:10;;;;;;;32.88;19.02;;;;;;;10.83;100.00;100944.31;5074880;28;20449;-67
2022/04/30 07:16:36;;;;;;;29.73;17.92;;;;;;;10.88;100.00;100955.31;5038729;28;20121;-68
2022/04/30 07:19:05;;;;;;;29.80;19.13;;;;;;;10.91;100.00;100949.69;5073301;28;20050;-68
2022/04/30 07:21:31;;;;;;;29.30;18.10;;;;;;;10.79;100.00;100958.94;5073082;28;20037;-68
2022/04/30 07:23:58;;;;;;;32.15;18.95;;;;;;;10.77;100.00;100958.28;5072410;28;20037;-68
2022/04/30 07:26:24;;;;;;;30.77;18.63;;;;;;;10.86;100.00;100952.81;5072887;28;20094;-68
2022/04/30 07:28:49;;;;;;;28.90;18.08;;;;;;;10.84;100.00;100954.81;5072922;28;20056;-68
2022/04/30 07:31:15;;;;;;;29.13;18.45;;;;;;;10.92;100.00;100958.53;5072934;28;20041;-67
2022/04/30 07:33:41;;;;;;;30.75;18.77;;;;;;;10.76;100.00;100949.44;5073272;28;20048;-66
2022/04/30 07:36:07;;;;;;;30.48;18.80;;;;;;;10.76;100.00;100949.44;5074068;28;20033;-67
2022/04/30 07:38:33;;;;;;;30.38;19.80;;;;;;;10.82;100.00;100959.47;5074033;28;20036;-69
2022/04/30 07:40:58;;;;;;;34.72;20.45;;;;;;;10.78;100.00;100947.47;5072831;28;20465;-68
2022/04/30 07:43:24;;;;;;;37.83;21.42;;;;;;;10.89;100.00;100954.34;5055352;28;20169;-67
2022/04/30 07:45:50;;;;;;;33.42;20.08;;;;;;;10.90;100.00;100953.38;5073799;28;20069;-68
2022/04/30 07:48:18;;;;;;;33.65;21.58;;;;;;;10.77;100.00;100966.28;5074177;28;20037;-67
2022/04/30 07:50:45;;;;;;;34.88;20.55;;;;;;;10.82;100.00;100969.28;5073753;28;20181;-69
2022/04/30 07:53:14;;;;;;;31.02;19.55;;;;;;;10.83;100.00;100966.47;5072902;28;20032;-67
2022/04/30 07:55:40;;;;;;;36.22;21.05;;;;;;;10.76;100.00;100968.09;5072917;28;20033;-67
2022/04/30 07:58:06;;;;;;;35.70;21.20;;;;;;;10.78;100.00;100973.28;5072402;28;20040;-67
2022/04/30 08:00:34;;;;;;;35.28;20.75;;;;;;;10.77;100.00;100966.28;5054437;28;20040;-69
2022/04/30 08:03:00;;;;;;;35.53;22.15;;;;;;;10.71;100.00;100970.41;5071472;28;20643;-66
2022/04/30 08:05:26;;;;;;;36.33;23.00;;;;;;;10.62;100.00;100968.66;5073148;28;20094;-67
2022/04/30 08:07:54;;;;;;;37.97;21.08;;;;;;;10.78;100.00;100974.09;5073365;28;20047;-67
2022/04/30 08:10:20;;;;;;;37.47;21.88;;;;;;;10.75;100.00;100979.72;5072878;28;20607;-67
2022/04/30 08:12:46;;;;;;;36.85;20.75;;;;;;;10.77;100.00;100971.59;5071722;28;20090;-68
2022/04/30 08:15:12;;;;;;;34.85;22.45;;;;;;;10.83;100.00;100977.16;5071448;28;20045;-70
2022/04/30 08:17:40;;;;;;;38.67;22.35;;;;;;;10.88;100.00;100968.66;5072150;28;20032;-72
2022/04/30 08:20:07;;;;;;;35.70;22.98;;;;;;;10.93;100.00;100977.03;5054085;28;20058;-70
2022/04/30 08:22:33;;;;;;;34.38;21.50;;;;;;;10.89;100.00;100983.69;5071524;28;20024;-70
2022/04/30 08:25:04;;;;;;;34.05;21.70;;;;;;;10.99;100.00;100971.06;5071488;28;20120;-68
2022/04/30 08:27:30;;;;;;;33.08;22.00;;;;;;;10.88;100.00;100984.66;5071676;28;20037;-68
2022/04/30 08:29:56;;;;;;;35.25;21.73;;;;;;;11.04;100.00;100979.41;5071573;28;20067;-68
2022/04/30 08:32:26;;;;;;;33.17;19.92;;;;;;;10.86;100.00;100975.97;5072290;28;20036;-68
2022/04/30 08:34:52;;;;;;;32.63;21.08;;;;;;;10.88;100.00;100974.81;5072731;28;20059;-68
2022/04/30 08:37:18;;;;;;;31.00;19.85;;;;;;;10.88;100.00;100979.31;5071720;28;20036;-70
2022/04/30 08:39:44;;;;;;;35.25;22.08;;;;;;;10.98;100.00;100981.88;5072041;28;20052;-67
2022/04/30 08:42:12;;;;;;;34.38;20.60;;;;;;;10.84;100.00;100985.97;5052880;28;20033;-68
2022/04/30 08:44:39;;;;;;;34.00;21.25;;;;;;;10.87;100.00;100981.16;5071682;28;20040;-69
2022/04/30 08:47:09;;;;;;;38.38;25.02;;;;;;;10.92;100.00;100986.00;5072703;28;20071;-68
2022/04/30 08:49:35;;;;;;;36.20;22.13;;;;;;;10.82;100.00;100983.47;5073001;28;20140;-68
2022/04/30 08:52:06;;;;;;;35.17;22.00;;;;;;;10.86;100.00;100986.63;5071110;28;20051;-67
2022/04/30 08:54:32;;;;;;;33.70;22.30;;;;;;;10.86;100.00;100986.63;5055439;28;20032;-67
2022/04/30 08:56:58;;;;;;;34.78;21.35;;;;;;;10.87;100.00;100983.81;5053989;28;20033;-67
2022/04/30 08:59:24;;;;;;;32.10;20.35;;;;;;;10.81;100.00;100989.75;4985206;28;20057;-67
2022/04/30 09:01:53;;;;;;;32.28;20.88;;;;;;;10.88;100.00;100989.97;4938322;28;20031;-67
2022/04/30 09:04:19;;;;;;;32.85;19.98;;;;;;;10.77;100.00;100983.09;4974629;28;20052;-67
2022/04/30 09:06:50;;;;;;;31.92;20.63;;;;;;;10.97;100.00;100989.03;4992768;28;20123;-67
2022/04/30 09:09:25;;;;;;;29.08;19.67;;;;;;;10.74;100.00;100987.88;4972327;28;20076;-68
2022/04/30 09:11:57;;;;;;;33.92;21.88;;;;;;;10.70;100.00;100981.22;4974260;28;20126;-71
2022/04/30 09:14:24;;;;;;;37.50;23.42;;;;;;;10.84;100.00;100988.63;4957244;28;20084;-69
2022/04/30 09:17:04;;;;;;;34.53;21.70;;;;;;;10.93;100.00;100990.34;4956381;28;20027;-68
2022/04/30 09:19:44;;;;;;;33.15;20.15;;;;;;;10.93;100.00;100987.69;4974253;28;20039;-68
2022/04/30 09:22:10;;;;;;;34.78;21.08;;;;;;;10.73;100.00;100986.22;4974030;28;20031;-69
2022/04/30 09:24:53;;;;;;;35.25;21.60;;;;;;;10.82;100.00;100990.59;4955961;28;20401;-71
2022/04/30 09:27:19;;;;;;;34.67;21.65;;;;;;;10.90;100.00;100990.69;4973627;28;20043;-68
2022/04/30 09:29:45;;;;;;;34.30;20.73;;;;;;;10.83;100.00;100986.97;4974154;28;20104;-68
2022/04/30 09:32:23;;;;;;;30.60;20.33;;;;;;;10.77;100.00;100985.75;4973068;28;20039;-68
2022/04/30 09:37:45;;;;;;;34.63;21.15;;;;;;;10.90;100.00;100987.19;4972694;28;20391;-69
2022/04/30 09:40:13;;;;;;;32.55;20.92;;;;;;;10.98;100.00;100990.72;4955208;28;20053;-68
2022/04/30 09:42:44;;;;;;;34.03;22.05;;;;;;;11.00;100.00;100994.06;4955224;28;20089;-69
2022/04/30 09:45:24;;;;;;;33.58;21.50;;;;;;;10.82;100.00;100990.59;4972852;28;20360;-69
2022/04/30 09:47:50;;;;;;;36.38;20.90;;;;;;;10.89;100.00;100997.00;4972404;28;20073;-69
2022/04/30 09:55:53;;;;;;;33.22;22.13;;;;;;;11.05;100.00;100989.09;4971986;28;20464;-69
2022/04/30 09:58:28;;;;;;;33.90;22.60;;;;;;;11.10;100.00;100985.97;4972004;28;20054;-69
2022/04/30 10:00:58;;;;;;;35.00;20.92;;;;;;;11.02;100.00;100986.75;4972162;28;20038;-69
2022/04/30 10:03:28;;;;;;;36.83;23.27;;;;;;;11.19;100.00;100979.66;4971767;28;20094;-69
2022/04/30 10:06:03;;;;;;;32.58;21.02;;;;;;;11.30;100.00;100989.22;4971922;28;20415;-69
2022/04/30 10:08:32;;;;;;;35.08;21.02;;;;;;;11.41;100.00;100987.09;4972039;28;20046;-69
2022/04/30 10:11:11;;;;;;;32.35;20.25;;;;;;;11.35;100.00;100985.09;4971868;28;20035;-69
2022/04/30 10:13:48;;;;;;;32.83;21.38;;;;;;;11.37;100.00;100991.09;4972198;28;20038;-69
2022/04/30 10:16:22;;;;;;;29.98;20.38;;;;;;;11.32;100.00;100976.53;4972260;28;20066;-69
2022/04/30 10:19:07;;;;;;;29.40;19.80;;;;;;;11.37;99.82;100985.75;4972210;28;20084;-68
2022/04/30 10:21:33;;;;;;;31.17;20.00;;;;;;;11.19;100.00;100984.16;4971048;28;20029;-68
2022/04/30 10:24:05;;;;;;;32.47;20.42;;;;;;;11.25;99.91;100996.84;5011836;28;20032;-69
2022/04/30 10:26:32;;;;;;;30.70;19.92;;;;;;;11.18;100.00;100990.50;5055970;28;20048;-69
2022/04/30 10:29:14;;;;;;;28.25;19.40;;;;;;;11.04;100.00;100991.91;5056543;28;20067;-69
2022/04/30 10:31:44;;;;;;;26.58;19.30;;;;;;;11.05;100.00;100989.09;5073164;28;20397;-69
2022/04/30 10:34:11;;;;;;;31.58;20.55;;;;;;;11.10;100.00;100985.97;5073868;28;20040;-69
2022/04/30 10:36:38;;;;;;;31.40;20.27;;;;;;;11.09;100.00;100982.47;5074255;28;20032;-68
2022/04/30 10:39:09;;;;;;;30.95;21.33;;;;;;;10.89;100.00;100981.00;5057507;28;20036;-68
2022/04/30 10:41:48;;;;;;;35.15;22.38;;;;;;;11.00;100.00;100977.22;5074398;28;20094;-69
2022/04/30 10:44:14;;;;;;;32.75;20.27;;;;;;;11.09;100.00;100976.28;5073325;28;20033;-68
2022/04/30 10:46:43;;;;;;;32.88;20.48;;;;;;;11.04;100.00;100983.91;5075036;28;20035;-69
2022/04/30 10:49:08;;;;;;;30.73;19.98;;;;;;;11.16;100.00;100980.00;5075524;28;20041;-68
2022/04/30 10:51:39;;;;;;;29.63;20.50;;;;;;;11.23;100.00;100986.34;5073186;28;20039;-69
2022/04/30 10:54:11;;;;;;;30.67;18.92;;;;;;;11.20;99.43;100970.66;5073313;28;20032;-67
2022/04/30 10:56:39;;;;;;;31.52;20.33;;;;;;;11.02;100.00;100973.41;5075618;28;20397;-68
2022/04/30 10:59:06;;;;;;;31.15;20.48;;;;;;;11.11;100.00;100976.97;5075988;28;20025;-68
2022/04/30 11:01:32;;;;;;;29.65;20.15;;;;;;;11.21;100.00;100975.00;5075446;28;20082;-68
2022/04/30 11:03:57;;;;;;;29.83;19.67;;;;;;;11.31;100.00;100980.22;5074276;28;20036;-69
2022/04/30 11:06:25;;;;;;;28.77;20.50;;;;;;;11.34;100.00;100980.72;5073733;28;20394;-68
2022/04/30 11:09:00;;;;;;;;;;;;;;;11.40;100.00;100979.25;5070951;22;20033;-77
2022/04/30 11:11:27;;;;;;;34.20;19.95;;;;;;;11.31;100.00;100961.53;5013945;28;19924;-74
2022/04/30 11:13:58;;;;;;;32.80;19.77;;;;;;;11.38;100.00;100973.25;5032092;28;20040;-74
2022/04/30 11:16:41;;;;;;;32.22;20.88;;;;;;;11.22;100.00;100970.53;5032207;28;20505;-74
2022/04/30 11:19:10;;;;;;;31.17;20.17;;;;;;;11.15;100.00;100959.66;5030958;28;20029;-74
2022/04/30 11:21:38;;;;;;;32.28;20.20;;;;;;;10.94;100.00;100962.69;5030503;28;20499;-75
2022/04/30 11:24:04;;;;;;;;;;;;;;;10.99;100.00;100964.88;5032279;28;20113;-74
2022/04/30 11:26:30;;;;;;;29.38;19.77;;;;;;;10.99;100.00;100960.38;5032078;28;19975;-76
2022/04/30 11:28:57;;;;;;;30.80;20.13;;;;;;;11.05;100.00;100957.09;5033633;28;20139;-77
2022/04/30 11:31:23;;;;;;;30.15;20.15;;;;;;;11.02;100.00;100960.09;5032099;28;20417;-77
2022/04/30 11:33:48;;;;;;;30.75;19.65;;;;;;;11.07;100.00;100965.75;5031697;28;20032;-75
2022/04/30 11:36:17;;;;;;;30.02;19.50;;;;;;;11.11;100.00;100966.28;5031771;28;20045;-76
2022/04/30 11:38:53;;;;;;;32.10;20.45;;;;;;;11.00;100.00;100970.06;5030804;28;20044;-75
2022/04/30 11:41:19;;;;;;;29.30;20.30;;;;;;;11.08;100.00;100964.78;5032043;28;20025;-76
2022/04/30 11:43:44;;;;;;;31.30;19.92;;;;;;;11.03;100.00;100964.44;5032585;28;20044;-75
2022/04/30 11:46:10;;;;;;;32.15;20.50;;;;;;;10.97;100.00;100957.06;5031759;28;20052;-74
2022/04/30 11:48:39;;;;;;;29.55;18.92;;;;;;;10.92;100.00;100959.34;5032013;28;20375;-77
2022/04/30 11:51:08;;;;;;;26.30;17.98;;;;;;;10.96;100.00;100955.41;5032712;28;20367;-77
2022/04/30 11:53:36;;;;;;;25.17;17.02;;;;;;;10.96;100.00;100960.72;5029962;28;20128;-77
2022/04/30 11:56:02;;;;;;;26.17;17.05;;;;;;;11.02;100.00;100960.09;5030990;28;20060;-76
2022/04/30 11:58:40;;;;;;;25.75;16.73;;;;;;;11.09;99.81;100953.13;5032599;28;20135;-77
2022/04/30 12:01:05;;;;;;;23.55;14.57;;;;;;;10.97;100.00;100950.91;5032337;28;20033;-78
2022/04/30 12:03:31;;;;;;;25.67;15.90;;;;;;;10.82;100.00;100961.28;5029942;28;20048;-77
2022/04/30 12:05:57;;;;;;;21.60;14.48;;;;;;;11.04;100.00;100957.25;5031982;28;20091;-77
2022/04/30 12:08:28;;;;;;;25.33;15.15;;;;;;;10.93;98.29;100960.19;5047258;28;20047;-77
2022/04/30 12:10:57;;;;;;;23.15;14.75;;;;;;;10.99;98.39;100960.38;5031519;28;20060;-76
2022/04/30 12:13:24;;;;;;;23.48;14.80;;;;;;;11.02;98.38;100949.44;5029662;28;20076;-76
2022/04/30 12:16:00;;;;;;;20.15;14.32;;;;;;;11.12;99.06;100960.78;5031704;28;20029;-76
2022/04/30 12:27:03;;;;;;;26.70;15.35;;;;;;;11.35;99.00;100947.75;5029819;28;20045;-75
2022/04/30 12:29:30;;;;;;;22.10;14.25;;;;;;;11.33;98.60;100951.53;5031847;28;20072;-76
2022/04/30 12:31:56;;;;;;;21.00;15.17;;;;;;;11.48;98.18;100954.44;5029804;28;20065;-76
2022/04/30 12:34:25;;;;;;;19.85;13.52;;;;;;;11.55;96.55;100952.81;5031451;28;20284;-77
2022/04/30 12:36:57;;;;;;;20.65;13.77;;;;;;;11.55;96.19;100950.97;5030144;28;20116;-77
2022/04/30 12:39:23;;;;;;;20.23;13.95;;;;;;;11.45;96.80;100950.25;5031348;28;20045;-76
2022/04/30 12:41:51;;;;;;;22.38;14.07;;;;;;;11.43;96.58;100946.94;5031182;28;20104;-76
2022/04/30 12:44:17;;;;;;;19.95;14.30;;;;;;;11.57;95.94;100937.47;5035049;28;20049;-77
2022/04/30 12:46:46;;;;;;;20.25;14.40;;;;;;;11.47;94.98;100942.91;5034242;28;20040;-77
2022/04/30 12:49:12;;;;;;;20.65;14.00;;;;;;;11.59;94.62;100930.94;5034061;28;20041;-75
2022/04/30 12:51:42;;;;;;;19.83;13.82;;;;;;;11.68;93.90;100935.31;5035008;28;20057;-77
2022/04/30 12:54:10;;;;;;;20.13;13.80;;;;;;;11.50;95.88;100939.09;5035514;28;20067;-76
2022/04/30 12:56:35;;;;;;;19.65;14.32;;;;;;;11.43;95.62;100938.09;5035298;28;20038;-76
2022/04/30 12:59:01;;;;;;;18.50;13.50;;;;;;;11.61;94.51;100928.97;5034046;28;20038;-76
2022/04/30 13:01:28;;;;;;;23.48;15.13;;;;;;;11.76;94.33;100931.00;5035192;28;20496;-76
2022/04/30 13:03:55;;;;;;;21.27;14.27;;;;;;;11.48;94.04;100939.28;5033960;28;20064;-76
2022/04/30 13:06:21;;;;;;;19.98;14.68;;;;;;;11.67;95.56;100936.31;5035143;28;20448;-76
2022/04/30 13:14:14;;;;;;;21.77;14.77;;;;;;;11.49;94.83;100930.28;5034936;28;20487;-75
2022/04/30 13:16:40;;;;;;;21.33;13.80;;;;;;;11.53;93.10;100936.09;5033606;28;20095;-76
2022/04/30 13:19:05;;;;;;;21.40;14.50;;;;;;;11.48;94.64;100928.59;5033424;28;20037;-76
2022/04/30 13:21:31;;;;;;;19.00;14.48;;;;;;;11.54;94.91;100927.97;5049971;28;20045;-74
2022/04/30 13:23:56;;;;;;;22.27;14.35;;;;;;;11.66;93.09;100926.63;5034522;28;20451;-76
2022/04/30 13:26:22;;;;;;;18.38;13.40;;;;;;;11.87;91.58;100920.03;5034603;28;20041;-76
2022/04/30 13:28:48;;;;;;;20.20;13.90;;;;;;;12.02;89.87;100913.03;5034454;28;20038;-76
2022/04/30 13:31:13;;;;;;;18.45;13.18;;;;;;;12.32;90.58;100916.84;5034457;28;20061;-76
2022/04/30 13:33:39;;;;;;;19.80;14.02;;;;;;;12.34;89.41;100909.53;5032972;28;20108;-75
2022/04/30 13:36:05;;;;;;;18.83;12.60;;;;;;;12.76;87.37;100903.09;5034338;28;20140;-75
2022/04/30 13:38:31;;;;;;;15.95;12.20;;;;;;;12.98;84.65;100894.34;5034217;28;20079;-76
2022/04/30 13:40:59;;;;;;;17.73;13.07;;;;;;;13.22;83.71;100909.47;5034237;28;20422;-76
2022/04/30 13:43:25;;;;;;;18.20;13.38;;;;;;;13.44;83.40;100907.03;5033884;28;20041;-76
2022/04/30 13:45:52;;;;;;;15.60;11.73;;;;;;;13.27;82.22;100906.25;5049534;28;20049;-75
2022/04/30 13:48:18;;;;;;;21.75;13.32;;;;;;;13.54;80.65;100902.28;5034024;28;20518;-76
2022/04/30 13:50:45;;;;;;;17.30;11.63;;;;;;;13.68;80.21;100901.50;5033895;28;20124;-77
2022/04/30 13:53:11;;;;;;;14.73;10.90;;;;;;;13.96;79.48;100906.34;5033295;28;20041;-77
2022/04/30 13:55:37;;;;;;;14.20;10.25;;;;;;;13.59;80.11;100897.22;5033973;28;20040;-75
2022/04/30 13:58:03;;;;;;;16.05;10.75;;;;;;;13.78;79.35;100888.72;5034371;28;20041;-76
2022/04/30 14:00:29;;;;;;;16.30;10.82;;;;;;;13.55;79.67;100903.94;5033809;28;20073;-75
2022/04/30 14:02:55;;;;;;;12.57;9.48;;;;;;;13.63;79.61;100901.22;5032511;28;20037;-77
2022/04/30 14:05:21;;;;;;;14.20;9.80;;;;;;;13.52;79.50;100901.63;5033737;28;20450;-75
2022/04/30 14:07:47;;;;;;;14.43;9.40;;;;;;;13.57;79.37;100891.22;5033632;28;20068;-76
2022/04/30 14:10:13;;;;;;;12.05;8.85;;;;;;;13.50;80.12;100896.44;5033588;28;20065;-76
2022/04/30 14:12:39;;;;;;;10.30;7.82;;;;;;;13.38;78.37;100897.84;5033221;28;20068;-75
2022/04/30 14:15:05;;;;;;;11.57;9.10;;;;;;;13.14;80.12;100898.78;5033594;28;20120;-76
2022/04/30 14:20:17;;;;;;;11.55;9.20;;;;;;;13.16;81.84;100898.59;5033450;28;20034;-76
2022/04/30 14:22:45;;;;;;;10.95;8.48;;;;;;;13.10;82.90;100899.28;5031889;28;20047;-75
2022/04/30 14:25:12;;;;;;;10.88;8.50;;;;;;;13.12;80.34;100898.13;5033299;28;20056;-75
2022/04/30 14:27:37;;;;;;;29.05;17.42;;;;;;;12.97;81.77;100889.13;5033293;28;20507;-76
2022/04/30 14:30:07;;;;;;;9.90;8.23;;;;;;;12.70;80.80;100899.25;5048798;28;20133;-77
2022/04/30 14:32:34;;;;;;;10.15;8.25;;;;;;;12.64;81.35;100894.59;5033144;28;20115;-77
2022/04/30 14:35:04;;;;;;;11.07;8.48;;;;;;;12.55;81.27;100900.97;5048341;28;20037;-76
2022/04/30 14:37:33;;;;;;;11.20;8.32;;;;;;;12.69;81.70;100899.44;5033046;28;20131;-76
2022/04/30 14:40:03;;;;;;;12.52;8.60;;;;;;;12.66;80.85;100902.47;5033194;28;20090;-75
2022/04/30 14:42:29;;;;;;;12.52;8.25;;;;;;;12.56;80.88;100902.63;5032980;28;20541;-76
2022/04/30 14:44:55;;;;;;;11.60;8.73;;;;;;;12.67;80.68;100910.28;5033130;28;20167;-76
2022/04/30 14:47:22;;;;;;;12.68;8.35;;;;;;;12.67;80.91;100898.78;5032947;28;20041;-76
2022/04/30 14:49:48;;;;;;;12.00;9.18;;;;;;;12.73;80.74;100903.44;5032823;28;20048;-76
2022/04/30 14:52:13;;;;;;;14.02;8.55;;;;;;;12.48;80.85;100900.81;5032504;28;20042;-73
2022/04/30 14:54:39;;;;;;;11.55;9.18;;;;;;;12.44;80.14;100891.47;5032809;28;20033;-76
2022/04/30 14:57:05;;;;;;;12.55;9.13;;;;;;;12.53;80.60;100888.78;5032875;28;20042;-76
2022/04/30 14:59:30;;;;;;;11.88;8.63;;;;;;;12.40;81.29;100897.34;5032597;28;20068;-77
2022/04/30 15:01:56;;;;;;;12.70;9.07;;;;;;;12.44;80.56;100893.28;5032526;28;20041;-76
2022/04/30 15:04:24;;;;;;;11.70;8.70;;;;;;;12.46;79.68;100888.63;5031253;28;20041;-76
2022/04/30 15:06:50;;;;;;;12.10;9.07;;;;;;;12.48;79.65;100884.78;5031905;28;20497;-76
2022/04/30 15:09:15;;;;;;;12.98;9.35;;;;;;;12.43;80.86;100888.97;5032558;28;20042;-76
2022/04/30 15:11:41;;;;;;;12.73;9.00;;;;;;;12.39;79.65;100884.97;5032071;28;20104;-76
2022/04/30 15:14:06;;;;;;;12.70;8.27;;;;;;;12.48;78.76;100882.09;5031475;28;20127;-76
2022/04/30 15:16:33;;;;;;;27.92;17.98;;;;;;;12.44;80.23;100882.59;5047854;28;20121;-77
2022/04/30 15:18:59;;;;;;;16.60;10.27;;;;;;;12.54;80.35;100887.78;5047487;28;20041;-77
2022/04/30 15:21:25;;;;;;;15.60;8.60;;;;;;;12.73;79.49;100880.22;5047520;28;20041;-76
2022/04/30 15:23:50;;;;;;;51.90;26.15;;;;;;;12.49;80.61;100873.09;5032018;28;20044;-76
2022/04/30 15:26:16;;;;;;;21.08;12.65;;;;;;;12.77;78.70;100873.50;5032300;28;20031;-76
2022/04/30 15:28:41;;;;;;;12.73;7.78;;;;;;;12.71;78.61;100873.34;5032210;28;20390;-74
2022/04/30 15:31:07;;;;;;;11.45;8.60;;;;;;;12.32;78.79;100881.28;5032128;28;20120;-74
2022/04/30 15:33:32;;;;;;;12.07;8.52;;;;;;;12.48;77.99;100881.28;5047091;28;20045;-74
2022/04/30 15:35:58;;;;;;;12.23;8.63;;;;;;;12.28;80.46;100885.31;5032012;28;20314;-76
2022/04/30 15:38:24;;;;;;;10.70;8.05;;;;;;;12.27;80.15;100881.00;5031784;28;20575;-75
2022/04/30 15:40:52;;;;;;;12.65;8.60;;;;;;;12.32;80.93;100879.44;5031814;28;20037;-73
2022/04/30 15:43:17;;;;;;;;;;;;;;;12.37;80.25;100882.44;5032069;28;20039;-76
2022/04/30 15:45:44;;;;;;;14.82;9.13;;;;;;;12.44;79.63;100883.44;5032015;28;19917;-75
2022/04/30 15:53:47;;;;;;;13.25;8.45;;;;;;;12.63;76.00;100882.22;5031914;28;20068;-74
2022/04/30 15:56:14;;;;;;;11.77;7.90;;;;;;;12.63;75.88;100887.56;5031922;28;20522;-74
2022/04/30 15:58:44;;;;;;;12.60;7.90;;;;;;;12.71;77.60;100890.25;5030306;28;20036;-75
2022/04/30 16:01:12;;;;;;;11.32;8.15;;;;;;;12.79;78.03;100886.72;5031561;28;20039;-75
2022/04/30 16:03:38;;;;;;;13.48;8.13;;;;;;;12.66;78.79;100887.25;5031463;28;20056;-74
2022/04/30 16:06:04;;;;;;;13.30;9.25;;;;;;;12.50;78.06;100882.75;5031619;28;20041;-74
2022/04/30 16:08:32;;;;;;;15.88;9.70;;;;;;;12.20;79.02;100897.69;5031388;28;20481;-74